createdAt,value
2019-01-04T00:00:22.574Z,4.70
2019-01-04T00:02:51.753Z,4.70
2019-01-04T00:05:20.835Z,4.80
2019-01-04T00:07:49.891Z,4.70
2019-01-04T00:10:18.971Z,4.80
2019-01-04T00:12:48.039Z,4.80
2019-01-04T00:15:17.116Z,4.90
2019-01-04T00:17:46.172Z,4.90
2019-01-04T00:20:15.218Z,4.90
2019-01-04T00:22:44.260Z,4.90
2019-01-04T00:25:13.383Z,5.00
2019-01-04T00:27:43.503Z,5.00
2019-01-04T00:30:12.863Z,5.00
2019-01-04T00:32:41.981Z,5.10
2019-01-04T00:35:11.044Z,5.10
2019-01-04T00:37:40.088Z,5.10
2019-01-04T00:40:09.495Z,5.20
2019-01-04T00:42:38.552Z,5.20
2019-01-04T00:45:10.981Z,5.20
2019-01-04T00:47:40.174Z,5.20
2019-01-04T00:50:09.480Z,5.30
2019-01-04T00:52:38.627Z,5.30
2019-01-04T00:55:41.765Z,5.30
2019-01-04T00:58:37.489Z,5.30
2019-01-04T01:02:08.698Z,5.30
2019-01-04T01:05:13.099Z,5.30
2019-01-04T01:08:13.875Z,5.30
2019-01-04T01:11:26.924Z,5.40
2019-01-04T01:14:37.142Z,5.40
2019-01-04T01:17:41.841Z,5.40
2019-01-04T01:20:52.329Z,5.40
2019-01-04T01:24:03.495Z,5.40
2019-01-04T01:27:05.992Z,5.40
2019-01-04T01:30:14.949Z,5.40
2019-01-04T01:32:59.090Z,5.50
2019-01-04T01:35:44.105Z,5.50
2019-01-04T01:38:53.107Z,5.50
2019-01-04T01:41:47.569Z,5.50
2019-01-04T01:44:43.400Z,5.50
2019-01-04T01:47:20.507Z,5.50
2019-01-04T01:50:14.930Z,5.40
2019-01-04T01:52:46.736Z,5.40
2019-01-04T01:55:15.839Z,5.40
2019-01-04T01:57:44.975Z,5.30
2019-01-04T02:00:14.097Z,5.30
2019-01-04T02:02:43.153Z,5.30
2019-01-04T02:05:12.215Z,5.30
2019-01-04T02:07:41.281Z,5.20
2019-01-04T02:10:10.422Z,5.20
2019-01-04T02:12:39.494Z,5.20
2019-01-04T02:15:08.803Z,5.30
2019-01-04T02:17:37.917Z,5.30
2019-01-04T02:20:07.337Z,5.30
2019-01-04T02:22:36.335Z,5.30
2019-01-04T02:25:05.911Z,5.30
2019-01-04T02:27:34.893Z,5.40
2019-01-04T02:30:04.672Z,5.40
2019-01-04T02:32:33.702Z,5.40
2019-01-04T02:35:02.709Z,5.50
2019-01-04T02:37:31.711Z,5.50
2019-01-04T02:40:00.801Z,5.50
2019-01-04T02:42:29.934Z,5.50
2019-01-04T02:44:59.048Z,5.50
2019-01-04T02:47:28.118Z,5.60
2019-01-04T02:49:57.103Z,5.60
2019-01-04T02:52:26.194Z,5.60
2019-01-04T02:54:55.207Z,5.60
2019-01-04T02:57:24.206Z,5.60
2019-01-04T02:59:53.287Z,5.70
2019-01-04T03:02:23.371Z,5.70
2019-01-04T03:04:52.444Z,5.70
2019-01-04T03:07:21.509Z,5.70
2019-01-04T03:09:50.564Z,5.70
2019-01-04T03:12:19.780Z,5.60
2019-01-04T03:14:48.914Z,5.60
2019-01-04T03:17:18.150Z,5.60
2019-01-04T03:19:47.366Z,5.50
2019-01-04T03:22:16.460Z,5.50
2019-01-04T03:24:45.568Z,5.50
2019-01-04T03:27:20.488Z,5.40
2019-01-04T03:29:49.504Z,5.30
2019-01-04T03:32:18.401Z,5.30
2019-01-04T03:34:47.384Z,5.30
2019-01-04T03:37:16.309Z,5.30
2019-01-04T03:39:45.350Z,5.40
2019-01-04T03:42:14.450Z,5.40
2019-01-04T03:44:43.531Z,5.40
2019-01-04T03:47:12.656Z,5.40
2019-01-04T03:49:41.830Z,5.50
2019-01-04T03:52:10.854Z,5.50
2019-01-04T03:54:39.969Z,5.50
2019-01-04T03:57:09.074Z,5.50
2019-01-04T03:59:38.124Z,5.60
2019-01-04T04:02:07.178Z,5.60
2019-01-04T04:04:36.263Z,5.60
2019-01-04T04:07:05.333Z,5.60
2019-01-04T04:09:43.864Z,5.60
2019-01-04T04:12:12.973Z,5.60
2019-01-04T04:14:42.093Z,5.60
2019-01-04T04:17:11.233Z,5.60
2019-01-04T04:19:40.352Z,5.70
2019-01-04T04:22:09.472Z,5.70
2019-01-04T04:24:38.582Z,5.70
2019-01-04T04:27:10.134Z,5.70
2019-01-04T04:29:39.292Z,5.70
2019-01-04T04:32:08.379Z,5.70
2019-01-04T04:34:37.721Z,5.70
2019-01-04T04:37:06.698Z,5.70
2019-01-04T04:39:35.604Z,5.70
2019-01-04T04:42:04.660Z,5.70
2019-01-04T04:44:34.820Z,5.70
2019-01-04T04:47:04.917Z,5.60
2019-01-04T04:49:33.904Z,5.70
2019-01-04T04:52:02.946Z,5.60
2019-01-04T04:54:32.275Z,5.60
2019-01-04T04:57:01.433Z,5.60
2019-01-04T04:59:30.443Z,5.60
2019-01-04T05:01:59.456Z,5.60
2019-01-04T05:04:28.504Z,5.60
2019-01-04T05:06:57.602Z,5.60
2019-01-04T05:09:26.611Z,5.60
2019-01-04T05:11:55.609Z,5.60
2019-01-04T05:14:24.686Z,5.60
2019-01-04T05:16:53.649Z,5.60
2019-01-04T05:19:22.720Z,5.60
2019-01-04T05:21:51.845Z,5.60
2019-01-04T05:24:21.066Z,5.60
2019-01-04T05:26:50.196Z,5.70
2019-01-04T05:29:19.178Z,5.70
2019-01-04T05:31:48.257Z,5.70
2019-01-04T05:34:17.314Z,5.70
2019-01-04T05:37:04.914Z,5.70
2019-01-04T05:39:33.994Z,5.80
2019-01-04T05:42:03.120Z,5.80
2019-01-04T05:44:32.298Z,5.70
2019-01-04T05:47:01.404Z,5.70
2019-01-04T05:49:31.584Z,5.70
2019-01-04T05:52:00.711Z,5.70
2019-01-04T05:54:29.791Z,5.70
2019-01-04T05:56:58.933Z,5.70
2019-01-04T05:59:28.029Z,5.70
2019-01-04T06:01:57.165Z,5.70
2019-01-04T06:04:26.293Z,5.70
2019-01-04T06:06:55.524Z,5.70
2019-01-04T06:09:27.635Z,5.70
2019-01-04T06:11:56.756Z,5.70
2019-01-04T06:14:25.900Z,5.60
2019-01-04T06:16:55.042Z,5.60
2019-01-04T06:19:24.160Z,5.70
2019-01-04T06:21:53.269Z,5.70
2019-01-04T06:24:22.454Z,5.60
2019-01-04T06:26:52.124Z,5.70
2019-01-04T06:29:21.367Z,5.70
2019-01-04T06:31:50.465Z,5.70
2019-01-04T06:34:19.581Z,5.70
2019-01-04T06:36:48.806Z,5.70
2019-01-04T06:39:17.899Z,5.70
2019-01-04T06:41:47.049Z,5.70
2019-01-04T06:44:16.166Z,5.70
2019-01-04T06:47:15.700Z,5.70
2019-01-04T06:49:45.139Z,5.70
2019-01-04T06:52:14.407Z,5.70
2019-01-04T06:55:40.099Z,5.70
2019-01-04T06:58:09.207Z,5.70
2019-01-04T07:00:39.380Z,5.70
2019-01-04T07:03:08.386Z,5.70
2019-01-04T07:05:37.388Z,5.80
2019-01-04T07:08:06.355Z,5.80
2019-01-04T07:10:35.416Z,5.80
2019-01-04T07:13:04.569Z,5.80
2019-01-04T07:15:33.580Z,5.80
2019-01-04T07:18:02.607Z,5.80
2019-01-04T07:20:31.660Z,5.80
2019-01-04T07:23:00.713Z,5.80
2019-01-04T07:25:29.844Z,5.80
2019-01-04T07:28:00.359Z,5.80
2019-01-04T07:30:29.433Z,5.80
2019-01-04T07:32:58.509Z,5.90
2019-01-04T07:35:27.619Z,5.90
2019-01-04T07:37:56.699Z,5.90
2019-01-04T07:40:25.755Z,5.90
2019-01-04T07:42:54.792Z,5.90
2019-01-04T07:45:26.619Z,5.90
2019-01-04T07:47:55.722Z,5.90
2019-01-04T07:50:24.760Z,5.90
2019-01-04T07:52:55.290Z,5.90
2019-01-04T07:55:24.350Z,5.90
2019-01-04T07:57:53.458Z,5.90
2019-01-04T08:00:22.909Z,5.90
2019-01-04T08:02:53.469Z,5.90
2019-01-04T08:05:26.844Z,5.90
2019-01-04T08:07:55.880Z,5.90
2019-01-04T08:10:24.997Z,5.90
2019-01-04T08:12:53.986Z,5.90
2019-01-04T08:15:23.075Z,5.90
2019-01-04T08:17:52.261Z,5.90
2019-01-04T08:20:21.429Z,5.90
2019-01-04T08:22:50.480Z,5.90
2019-01-04T08:25:19.540Z,5.90
2019-01-04T08:27:51.592Z,5.90
2019-01-04T08:30:21.348Z,5.90
2019-01-04T08:32:50.366Z,5.90
2019-01-04T08:35:19.654Z,5.80
2019-01-04T08:37:48.804Z,5.80
2019-01-04T08:40:20.713Z,5.90
2019-01-04T08:42:49.994Z,5.90
2019-01-04T08:45:19.260Z,5.90
2019-01-04T08:47:48.560Z,5.90
2019-01-04T08:50:17.643Z,5.90
2019-01-04T08:52:46.730Z,5.90
2019-01-04T08:55:27.673Z,5.90
2019-01-04T08:57:56.775Z,5.90
2019-01-04T09:00:25.954Z,5.90
2019-01-04T09:02:55.141Z,5.80
2019-01-04T09:05:25.567Z,5.90
2019-01-04T09:07:54.711Z,5.90
2019-01-04T09:10:23.828Z,5.90
2019-01-04T09:12:52.817Z,5.90
2019-01-04T09:15:21.900Z,5.90
2019-01-04T09:17:50.966Z,5.90
2019-01-04T09:20:20.043Z,5.90
2019-01-04T09:22:49.049Z,5.90
2019-01-04T09:25:18.146Z,5.90
2019-01-04T09:27:48.277Z,6.00
2019-01-04T09:30:17.447Z,6.00
2019-01-04T09:32:46.605Z,6.00
2019-01-04T09:35:15.665Z,6.00
2019-01-04T09:37:45.357Z,6.00
2019-01-04T09:40:15.336Z,6.00
2019-01-04T09:42:47.083Z,6.00
2019-01-04T09:45:16.739Z,6.00
2019-01-04T09:47:46.641Z,6.00
2019-01-04T09:50:16.930Z,6.00
2019-01-04T09:52:47.109Z,6.00
2019-01-04T09:55:16.762Z,6.00
2019-01-04T09:57:46.499Z,6.10
2019-01-04T10:00:19.119Z,6.10
2019-01-04T10:02:48.183Z,6.10
2019-01-04T10:05:17.267Z,6.10
2019-01-04T10:07:46.419Z,6.10
2019-01-04T10:10:15.567Z,6.10
2019-01-04T10:12:44.633Z,6.10
2019-01-04T10:15:15.892Z,6.10
2019-01-04T10:17:44.942Z,6.10
2019-01-04T10:20:14.068Z,6.10
2019-01-04T10:22:44.287Z,6.10
2019-01-04T10:25:13.944Z,6.10
2019-01-04T10:27:46.780Z,6.10
2019-01-04T10:30:27.579Z,6.20
2019-01-04T10:32:57.033Z,6.20
2019-01-04T10:35:26.106Z,6.20
2019-01-04T10:37:55.370Z,6.20
2019-01-04T10:40:25.555Z,6.20
2019-01-04T10:42:54.855Z,6.30
2019-01-04T10:45:24.154Z,6.30
2019-01-04T10:47:53.721Z,6.30
2019-01-04T10:50:22.965Z,6.30
2019-01-04T10:52:52.207Z,6.30
2019-01-04T10:55:21.449Z,6.30
2019-01-04T10:57:50.928Z,6.30
2019-01-04T11:00:20.397Z,6.30
2019-01-04T11:02:49.493Z,6.20
2019-01-04T11:05:18.676Z,6.50
2019-01-04T11:07:47.706Z,6.40
2019-01-04T11:10:16.788Z,6.30
2019-01-04T11:12:45.828Z,6.30
2019-01-04T11:15:14.831Z,6.30
2019-01-04T11:17:43.879Z,6.30
2019-01-04T11:20:48.808Z,6.20
2019-01-04T11:23:58.882Z,6.20
2019-01-04T11:26:35.267Z,6.20
2019-01-04T11:29:16.344Z,6.20
2019-01-04T11:32:13.783Z,6.30
2019-01-04T11:35:26.937Z,6.20
2019-01-04T11:38:07.620Z,6.20
2019-01-04T11:41:20.714Z,6.20
2019-01-04T11:44:16.686Z,6.30
2019-01-04T11:47:25.924Z,6.30
2019-01-04T11:50:12.917Z,6.30
2019-01-04T11:52:47.697Z,6.30
2019-01-04T11:55:16.756Z,6.30
2019-01-04T11:57:45.783Z,6.40
2019-01-04T12:00:14.964Z,6.40
2019-01-04T12:02:45.595Z,6.40
2019-01-04T12:05:16.424Z,6.40
2019-01-04T12:07:45.508Z,6.40
2019-01-04T12:10:14.680Z,6.40
2019-01-04T12:12:43.757Z,6.40
2019-01-04T12:15:12.825Z,6.40
2019-01-04T12:17:41.931Z,6.40
2019-01-04T12:20:11.058Z,6.40
2019-01-04T12:22:40.090Z,6.40
2019-01-04T12:25:09.166Z,6.40
2019-01-04T12:27:38.121Z,6.40
2019-01-04T12:30:08.233Z,6.40
2019-01-04T12:32:37.236Z,6.40
2019-01-04T12:35:06.331Z,6.40
2019-01-04T12:37:35.363Z,6.40
2019-01-04T12:40:04.465Z,6.40
2019-01-04T12:42:33.629Z,6.40
2019-01-04T12:45:02.782Z,6.40
2019-01-04T12:47:31.932Z,6.40
2019-01-04T12:50:01.007Z,6.40
2019-01-04T12:52:30.134Z,6.40
2019-01-04T12:54:59.597Z,6.40
2019-01-04T12:57:29.012Z,6.40
2019-01-04T12:59:58.378Z,6.40
2019-01-04T13:02:27.574Z,6.50
2019-01-04T13:04:56.628Z,6.50
2019-01-04T13:07:25.835Z,6.50
2019-01-04T13:09:57.795Z,6.50
2019-01-04T13:12:26.931Z,6.50
2019-01-04T13:14:55.995Z,6.50
2019-01-04T13:17:25.083Z,6.40
2019-01-04T13:19:54.417Z,6.50
2019-01-04T13:22:23.561Z,6.50
2019-01-04T13:24:52.550Z,6.50
2019-01-04T13:27:22.688Z,6.50
2019-01-04T13:29:51.887Z,6.50
2019-01-04T13:32:21.007Z,6.50
2019-01-04T13:34:50.212Z,6.50
2019-01-04T13:37:19.452Z,6.50
2019-01-04T13:39:48.872Z,6.50
2019-01-04T13:42:17.853Z,6.50
2019-01-04T13:44:46.921Z,6.50
2019-01-04T13:47:15.990Z,6.60
2019-01-04T13:49:45.059Z,6.60
2019-01-04T13:52:14.243Z,6.60
2019-01-04T13:54:43.748Z,6.60
2019-01-04T13:57:12.998Z,6.60
2019-01-04T13:59:42.209Z,6.60
2019-01-04T14:02:11.405Z,6.60
2019-01-04T14:04:40.619Z,6.70
2019-01-04T14:07:09.792Z,6.70
2019-01-04T14:09:41.672Z,6.70
2019-01-04T14:12:10.715Z,6.70
2019-01-04T14:14:39.776Z,6.70
2019-01-04T14:17:08.922Z,6.70
2019-01-04T14:19:38.086Z,6.70
2019-01-04T14:22:07.238Z,6.70
2019-01-04T14:24:36.457Z,6.70
2019-01-04T14:27:05.475Z,6.70
2019-01-04T14:29:35.010Z,6.60
2019-01-04T14:32:04.131Z,6.60
2019-01-04T14:34:33.261Z,6.60
2019-01-04T14:37:19.053Z,6.60
2019-01-04T14:39:48.265Z,6.60
2019-01-04T14:42:17.451Z,6.50
2019-01-04T14:44:46.512Z,6.60
2019-01-04T14:47:15.638Z,6.60
2019-01-04T14:49:44.748Z,6.60
2019-01-04T14:52:14.136Z,6.60
2019-01-04T14:54:43.596Z,6.70
2019-01-04T14:57:12.910Z,6.70
2019-01-04T14:59:42.295Z,6.80
2019-01-04T15:02:11.545Z,6.80
2019-01-04T15:04:40.775Z,6.90
2019-01-04T15:07:10.320Z,6.90
2019-01-04T15:09:43.166Z,6.90
2019-01-04T15:12:12.336Z,6.90
2019-01-04T15:14:41.462Z,6.90
2019-01-04T15:17:10.654Z,6.90
2019-01-04T15:19:39.834Z,6.90
2019-01-04T15:22:08.985Z,6.90
2019-01-04T15:24:38.177Z,6.90
2019-01-04T15:27:08.465Z,6.90
2019-01-04T15:29:37.704Z,6.90
2019-01-04T15:32:06.873Z,7.00
2019-01-04T15:34:36.264Z,7.00
2019-01-04T15:37:05.521Z,7.00
2019-01-04T15:39:34.774Z,7.00
2019-01-04T15:42:03.854Z,7.00
2019-01-04T15:44:33.028Z,7.10
2019-01-04T15:47:03.270Z,7.10
2019-01-04T15:49:32.380Z,7.00
2019-01-04T15:52:01.417Z,7.00
2019-01-04T15:54:30.727Z,7.10
2019-01-04T15:56:59.847Z,7.10
2019-01-04T15:59:28.937Z,7.00
2019-01-04T16:01:58.081Z,7.10
2019-01-04T16:04:27.182Z,7.10
2019-01-04T16:06:56.233Z,7.00
2019-01-04T16:09:25.298Z,7.00
2019-01-04T16:11:54.358Z,7.00
2019-01-04T16:14:26.224Z,7.00
2019-01-04T16:16:55.407Z,7.00
2019-01-04T16:19:24.494Z,7.10
2019-01-04T16:21:53.650Z,7.10
2019-01-04T16:24:22.682Z,7.10
2019-01-04T16:26:51.817Z,7.10
2019-01-04T16:29:20.839Z,7.10
2019-01-04T16:31:49.905Z,7.10
2019-01-04T16:34:18.965Z,7.10
2019-01-04T16:36:48.391Z,7.20
2019-01-04T16:39:17.828Z,7.20
2019-01-04T16:41:47.227Z,7.20
2019-01-04T16:44:16.227Z,7.20
2019-01-04T16:46:45.441Z,7.20
2019-01-04T16:49:14.520Z,7.20
2019-01-04T16:51:43.513Z,7.20
2019-01-04T16:54:12.581Z,7.30
2019-01-04T16:56:41.906Z,7.20
2019-01-04T16:59:11.232Z,7.20
2019-01-04T17:01:40.485Z,7.20
2019-01-04T17:04:09.602Z,7.30
2019-01-04T17:06:38.645Z,7.30
2019-01-04T17:09:11.655Z,7.30
2019-01-04T17:11:40.722Z,7.30
2019-01-04T17:14:09.888Z,7.40
2019-01-04T17:16:38.953Z,7.30
2019-01-04T17:19:10.142Z,7.30
2019-01-04T17:21:39.293Z,7.30
2019-01-04T17:24:08.325Z,7.30
2019-01-04T17:26:37.562Z,7.30
2019-01-04T17:29:06.768Z,7.30
2019-01-04T17:31:35.993Z,7.30
2019-01-04T17:34:05.112Z,7.30
2019-01-04T17:36:34.351Z,7.30
2019-01-04T17:39:04.312Z,7.30
2019-01-04T17:41:33.382Z,7.20
2019-01-04T17:44:02.432Z,7.20
2019-01-04T17:46:31.491Z,7.20
2019-01-04T17:49:00.583Z,7.20
2019-01-04T17:51:29.578Z,7.20
2019-01-04T17:53:58.693Z,7.30
2019-01-04T17:56:27.773Z,7.30
2019-01-04T17:58:56.749Z,7.30
2019-01-04T18:01:25.823Z,7.30
2019-01-04T18:03:54.957Z,7.30
2019-01-04T18:06:24.023Z,7.30
2019-01-04T18:08:53.135Z,7.30
2019-01-04T18:11:22.194Z,7.30
2019-01-04T18:13:51.261Z,7.30
2019-01-04T18:16:20.377Z,7.30
2019-01-04T18:18:52.779Z,7.30
2019-01-04T18:21:21.870Z,7.40
2019-01-04T18:23:50.903Z,7.40
2019-01-04T18:26:24.372Z,7.40
2019-01-04T18:28:50.666Z,7.30
2019-01-04T18:31:19.700Z,7.30
2019-01-04T18:33:48.794Z,7.30
2019-01-04T18:36:23.719Z,7.30
2019-01-04T18:38:52.676Z,7.30
2019-01-04T18:41:22.601Z,7.30
2019-01-04T18:43:51.768Z,7.30
2019-01-04T18:46:20.849Z,7.30
2019-01-04T18:48:49.837Z,7.40
2019-01-04T18:51:18.941Z,7.40
2019-01-04T18:53:48.007Z,7.40
2019-01-04T18:56:18.182Z,7.50
2019-01-04T18:58:47.317Z,7.50
2019-01-04T19:01:16.498Z,7.40
2019-01-04T19:03:45.583Z,7.40
2019-01-04T19:06:14.646Z,7.40
2019-01-04T19:08:44.743Z,7.40
2019-01-04T19:11:14.200Z,7.40
2019-01-04T19:13:43.248Z,7.40
2019-01-04T19:16:12.278Z,7.40
2019-01-04T19:18:43.151Z,7.40
2019-01-04T19:21:12.142Z,7.40
2019-01-04T19:23:41.182Z,7.40
2019-01-04T19:26:10.271Z,7.40
2019-01-04T19:28:39.260Z,7.40
2019-01-04T19:31:08.467Z,7.40
2019-01-04T19:33:37.602Z,7.40
2019-01-04T19:36:09.531Z,7.40
2019-01-04T19:38:38.548Z,7.40
2019-01-04T19:41:07.610Z,7.40
2019-01-04T19:43:36.711Z,7.40
2019-01-04T19:46:05.772Z,7.40
2019-01-04T19:48:34.917Z,7.40
2019-01-04T19:51:04.020Z,7.50
2019-01-04T19:53:33.030Z,7.50
2019-01-04T19:56:02.020Z,7.50
2019-01-04T19:58:31.090Z,7.50
2019-01-04T20:01:01.289Z,7.50
2019-01-04T20:03:30.435Z,7.50
2019-01-04T20:07:26.152Z,7.40
2019-01-04T20:10:57.440Z,7.40
2019-01-04T20:14:33.309Z,7.50
2019-01-04T20:17:19.886Z,7.50
2019-01-04T20:20:22.248Z,7.40
2019-01-04T20:23:08.964Z,7.40
2019-01-04T20:26:15.241Z,7.40
2019-01-04T20:29:01.664Z,7.40
2019-01-04T20:31:49.801Z,7.30
2019-01-04T20:34:46.526Z,7.30
2019-01-04T20:37:49.441Z,7.20
2019-01-04T20:40:53.252Z,7.30
2019-01-04T20:43:40.974Z,7.30
2019-01-04T20:46:47.090Z,7.30
2019-01-04T20:49:47.303Z,7.30
2019-01-04T20:52:31.231Z,7.30
2019-01-04T20:55:31.162Z,7.40
2019-01-04T20:58:25.222Z,7.30
2019-01-04T21:01:14.491Z,7.40
2019-01-04T21:04:04.515Z,7.40
2019-01-04T21:06:43.652Z,7.30
2019-01-04T21:09:40.663Z,7.30
2019-01-04T21:12:28.780Z,7.30
2019-01-04T21:15:22.749Z,7.40
2019-01-04T21:18:13.710Z,7.30
2019-01-04T21:20:53.928Z,7.30
2019-01-04T21:23:44.634Z,7.40
2019-01-04T21:26:31.215Z,7.30
2019-01-04T21:29:37.409Z,7.30
2019-01-04T21:32:23.951Z,7.30
2019-01-04T21:35:10.518Z,7.20
2019-01-04T21:37:50.655Z,7.20
2019-01-04T21:40:38.805Z,7.20
2019-01-04T21:43:45.079Z,7.20
2019-01-04T21:46:32.836Z,7.20
2019-01-04T21:49:33.069Z,7.30
2019-01-04T21:52:36.137Z,7.20
2019-01-04T21:55:22.696Z,7.20
2019-01-04T21:58:28.756Z,7.30
2019-01-04T22:01:18.129Z,7.30
2019-01-04T22:04:05.108Z,7.30
2019-01-04T22:06:51.587Z,7.30
2019-01-04T22:09:54.412Z,7.40
2019-01-04T22:12:37.804Z,7.40
2019-01-04T22:15:24.245Z,7.30
2019-01-04T22:18:22.193Z,7.40
2019-01-04T22:21:19.062Z,7.40
2019-01-04T22:24:05.459Z,7.40
2019-01-04T22:26:54.011Z,7.40
2019-01-04T22:29:37.474Z,7.40
2019-01-04T22:32:31.587Z,7.40
2019-01-04T22:35:13.761Z,7.40
2019-01-04T22:38:16.714Z,7.40
2019-01-04T22:41:19.618Z,7.40
2019-01-04T22:44:22.731Z,7.40
2019-01-04T22:47:15.019Z,7.40
2019-01-04T22:49:53.424Z,7.40
2019-01-04T22:52:39.906Z,7.40
2019-01-04T22:55:42.935Z,7.40
2019-01-04T22:58:40.007Z,7.30
2019-01-04T23:01:30.920Z,7.40
2019-01-04T23:04:17.850Z,7.40
2019-01-04T23:07:11.878Z,7.40
2019-01-04T23:09:58.261Z,7.40
2019-01-04T23:12:55.437Z,7.40
2019-01-04T23:15:46.610Z,7.40
2019-01-04T23:18:37.666Z,7.50
2019-01-04T23:22:03.904Z,7.50
2019-01-04T23:25:07.151Z,7.50
2019-01-04T23:27:53.508Z,7.50
2019-01-04T23:30:40.131Z,7.40
2019-01-04T23:33:30.053Z,7.40
2019-01-04T23:36:22.958Z,7.50
2019-01-04T23:39:22.763Z,7.50
2019-01-04T23:42:16.943Z,7.50
2019-01-04T23:45:03.525Z,7.50
2019-01-04T23:47:49.605Z,7.50
2019-01-04T23:50:52.804Z,7.50
2019-01-04T23:53:39.458Z,7.50
2019-01-04T23:56:18.499Z,7.60
2019-01-04T23:59:02.743Z,7.60
